createdAt,value
2018-07-20T00:00:33.890Z,0.00
2018-07-20T00:01:33.538Z,0.00
2018-07-20T00:02:33.518Z,0.00
2018-07-20T00:03:33.512Z,0.00
2018-07-20T00:04:33.540Z,0.00
2018-07-20T00:05:33.505Z,0.00
2018-07-20T00:06:33.520Z,0.00
2018-07-20T00:07:33.498Z,0.00
2018-07-20T00:08:33.490Z,0.00
2018-07-20T00:09:33.479Z,0.00
2018-07-20T00:10:33.473Z,0.00
2018-07-20T00:11:33.517Z,0.00
2018-07-20T00:12:33.464Z,0.00
2018-07-20T00:13:33.449Z,0.00
2018-07-20T00:14:33.457Z,0.00
2018-07-20T00:15:33.435Z,0.00
2018-07-20T00:16:33.485Z,0.00
2018-07-20T00:17:33.427Z,0.00
2018-07-20T00:18:33.415Z,0.00
2018-07-20T00:19:33.412Z,0.00
2018-07-20T00:20:33.418Z,0.00
2018-07-20T00:21:33.405Z,0.00
2018-07-20T00:22:33.417Z,0.00
2018-07-20T00:23:33.386Z,0.00
2018-07-20T00:24:33.374Z,0.00
2018-07-20T00:25:33.369Z,0.00
2018-07-20T00:26:33.368Z,0.00
2018-07-20T00:27:33.397Z,0.00
2018-07-20T00:28:33.349Z,0.00
2018-07-20T00:29:33.347Z,0.00
2018-07-20T00:30:33.328Z,0.00
2018-07-20T00:31:33.325Z,0.00
2018-07-20T00:32:33.356Z,0.00
2018-07-20T00:33:33.312Z,0.00
2018-07-20T00:34:33.312Z,0.00
2018-07-20T00:35:33.291Z,0.00
2018-07-20T00:36:33.300Z,0.00
2018-07-20T00:37:33.337Z,0.00
2018-07-20T00:38:33.355Z,0.00
2018-07-20T00:39:33.271Z,0.00
2018-07-20T00:40:33.269Z,0.00
2018-07-20T00:41:33.253Z,0.00
2018-07-20T00:42:33.255Z,0.00
2018-07-20T00:43:33.243Z,0.00
2018-07-20T00:44:33.247Z,0.00
2018-07-20T00:45:33.260Z,0.00
2018-07-20T00:46:33.242Z,0.00
2018-07-20T00:47:33.235Z,0.00
2018-07-20T00:48:33.199Z,0.00
2018-07-20T00:49:33.219Z,0.00
2018-07-20T00:50:33.190Z,0.00
2018-07-20T00:51:33.196Z,0.00
2018-07-20T00:52:33.195Z,0.00
2018-07-20T00:53:33.179Z,0.00
2018-07-20T00:54:33.195Z,0.00
2018-07-20T00:55:33.163Z,0.00
2018-07-20T00:56:33.151Z,0.00
2018-07-20T00:57:33.147Z,0.00
2018-07-20T00:58:33.133Z,0.00
2018-07-20T00:59:33.149Z,0.00
2018-07-20T01:00:33.113Z,0.00
2018-07-20T01:01:33.112Z,0.00
2018-07-20T01:02:33.103Z,0.00
2018-07-20T01:03:33.139Z,0.00
2018-07-20T01:04:33.091Z,0.00
2018-07-20T01:05:33.246Z,0.00
2018-07-20T01:06:33.075Z,0.00
2018-07-20T01:07:33.078Z,0.00
2018-07-20T01:08:33.052Z,0.00
2018-07-20T01:09:33.124Z,0.00
2018-07-20T01:10:33.038Z,0.00
2018-07-20T01:11:33.030Z,0.00
2018-07-20T01:12:33.036Z,0.00
2018-07-20T01:13:33.026Z,0.00
2018-07-20T01:14:33.014Z,0.00
2018-07-20T01:15:33.074Z,0.00
2018-07-20T01:16:33.018Z,0.00
2018-07-20T01:17:32.994Z,0.00
2018-07-20T01:18:32.985Z,0.00
2018-07-20T01:19:32.985Z,0.00
2018-07-20T01:20:32.961Z,0.00
2018-07-20T01:21:32.982Z,0.00
2018-07-20T01:22:32.956Z,0.00
2018-07-20T01:23:32.938Z,0.00
2018-07-20T01:24:32.971Z,0.00
2018-07-20T01:25:32.927Z,0.00
2018-07-20T01:26:32.920Z,0.00
2018-07-20T01:27:32.915Z,0.00
2018-07-20T01:28:32.975Z,0.00
2018-07-20T01:29:32.947Z,0.00
2018-07-20T01:30:32.890Z,0.00
2018-07-20T01:31:32.893Z,0.00
2018-07-20T01:32:32.896Z,0.00
2018-07-20T01:33:32.873Z,0.00
2018-07-20T01:34:32.900Z,0.00
2018-07-20T01:35:32.909Z,0.00
2018-07-20T01:36:32.849Z,0.00
2018-07-20T01:37:32.853Z,0.00
2018-07-20T01:38:32.833Z,0.00
2018-07-20T01:39:32.822Z,0.00
2018-07-20T01:40:32.816Z,0.00
2018-07-20T01:41:32.828Z,0.00
2018-07-20T01:42:32.803Z,0.00
2018-07-20T01:43:32.792Z,0.00
2018-07-20T01:44:32.787Z,0.00
2018-07-20T01:45:32.850Z,0.00
2018-07-20T01:46:32.762Z,0.00
2018-07-20T01:47:32.769Z,0.00
2018-07-20T01:48:32.778Z,0.00
2018-07-20T01:49:32.741Z,0.00
2018-07-20T01:50:32.750Z,0.00
2018-07-20T01:51:32.756Z,0.00
2018-07-20T01:52:32.746Z,0.00
2018-07-20T01:53:32.714Z,0.00
2018-07-20T01:54:32.722Z,0.00
2018-07-20T01:55:32.711Z,0.00
2018-07-20T01:56:33.058Z,0.00
2018-07-20T01:57:32.683Z,0.00
2018-07-20T01:58:32.689Z,0.00
2018-07-20T01:59:32.676Z,0.00
2018-07-20T02:00:32.666Z,0.00
2018-07-20T02:01:32.673Z,0.00
2018-07-20T02:02:32.686Z,0.00
2018-07-20T02:03:32.644Z,0.00
2018-07-20T02:04:32.631Z,0.00
2018-07-20T02:05:32.628Z,0.00
2018-07-20T02:06:32.620Z,0.00
2018-07-20T02:07:32.639Z,0.00
2018-07-20T02:08:32.611Z,0.00
2018-07-20T02:09:32.660Z,0.00
2018-07-20T02:10:32.601Z,0.00
2018-07-20T02:11:32.604Z,0.00
2018-07-20T02:12:32.579Z,0.00
2018-07-20T02:13:32.568Z,0.00
2018-07-20T02:14:32.562Z,0.00
2018-07-20T02:15:32.590Z,0.00
2018-07-20T02:16:32.545Z,0.00
2018-07-20T02:17:32.536Z,0.00
2018-07-20T02:18:32.548Z,0.00
2018-07-20T02:19:32.561Z,0.00
2018-07-20T02:20:32.515Z,0.00
2018-07-20T02:21:32.540Z,0.00
2018-07-20T02:22:32.506Z,0.00
2018-07-20T02:23:32.491Z,0.00
2018-07-20T02:24:32.547Z,0.00
2018-07-20T02:25:32.479Z,0.00
2018-07-20T02:26:32.470Z,0.00
2018-07-20T02:27:32.468Z,0.00
2018-07-20T02:28:32.454Z,0.00
2018-07-20T02:29:32.837Z,0.00
2018-07-20T02:30:32.438Z,0.00
2018-07-20T02:31:32.436Z,0.00
2018-07-20T02:32:32.427Z,0.00
2018-07-20T02:33:32.424Z,0.00
2018-07-20T02:34:32.421Z,0.00
2018-07-20T02:35:32.426Z,0.00
2018-07-20T02:36:32.400Z,0.00
2018-07-20T02:37:32.392Z,0.00
2018-07-20T02:38:32.386Z,0.00
2018-07-20T02:39:32.368Z,0.00
2018-07-20T02:40:32.367Z,0.00
2018-07-20T02:41:32.367Z,0.00
2018-07-20T02:42:32.358Z,0.00
2018-07-20T02:43:32.348Z,0.00
2018-07-20T02:44:32.336Z,0.00
2018-07-20T02:45:32.335Z,0.00
2018-07-20T02:46:32.348Z,0.00
2018-07-20T02:47:32.312Z,0.00
2018-07-20T02:48:32.298Z,0.00
2018-07-20T02:49:32.298Z,0.00
2018-07-20T02:50:32.299Z,0.00
2018-07-20T02:51:32.282Z,0.00
2018-07-20T02:52:32.322Z,0.00
2018-07-20T02:53:32.269Z,0.00
2018-07-20T02:54:32.265Z,0.00
2018-07-20T02:55:32.245Z,0.00
2018-07-20T02:56:32.237Z,0.00
2018-07-20T02:57:32.265Z,0.00
2018-07-20T02:58:32.218Z,4.00
2018-07-20T02:59:32.214Z,0.00
2018-07-20T03:00:32.208Z,0.00
2018-07-20T03:01:32.208Z,4.00
2018-07-20T03:02:32.189Z,4.00
2018-07-20T03:03:32.184Z,0.00
2018-07-20T03:04:32.178Z,4.00
2018-07-20T03:05:32.189Z,4.00
2018-07-20T03:06:32.163Z,4.00
2018-07-20T03:07:32.156Z,4.00
2018-07-20T03:08:32.155Z,4.00
2018-07-20T03:09:32.138Z,4.00
2018-07-20T03:10:32.128Z,4.00
2018-07-20T03:11:32.111Z,8.00
2018-07-20T03:12:32.127Z,8.00
2018-07-20T03:13:32.161Z,8.00
2018-07-20T03:14:32.094Z,8.00
2018-07-20T03:15:32.091Z,12.00
2018-07-20T03:16:32.080Z,12.00
2018-07-20T03:17:32.080Z,12.00
2018-07-20T03:18:32.064Z,12.00
2018-07-20T03:19:32.106Z,16.00
2018-07-20T03:20:32.080Z,16.00
2018-07-20T03:21:32.056Z,16.00
2018-07-20T03:22:32.047Z,16.00
2018-07-20T03:23:32.043Z,16.00
2018-07-20T03:24:32.059Z,20.00
2018-07-20T03:25:32.007Z,24.00
2018-07-20T03:26:32.007Z,24.00
2018-07-20T03:27:31.985Z,24.00
2018-07-20T03:28:31.989Z,28.00
2018-07-20T03:29:31.988Z,28.00
2018-07-20T03:30:31.976Z,32.00
2018-07-20T03:31:31.975Z,36.00
2018-07-20T03:32:31.963Z,36.00
2018-07-20T03:33:31.950Z,36.00
2018-07-20T03:34:31.936Z,40.00
2018-07-20T03:35:31.960Z,44.00
2018-07-20T03:36:31.927Z,44.00
2018-07-20T03:37:31.917Z,48.00
2018-07-20T03:38:31.909Z,52.00
2018-07-20T03:39:31.898Z,52.00
2018-07-20T03:40:31.893Z,60.00
2018-07-20T03:41:31.895Z,64.00
2018-07-20T03:42:31.882Z,68.00
2018-07-20T03:43:31.872Z,72.00
2018-07-20T03:44:31.852Z,76.00
2018-07-20T03:45:31.872Z,80.00
2018-07-20T03:46:31.849Z,88.00
2018-07-20T03:47:31.832Z,88.00
2018-07-20T03:48:31.827Z,92.00
2018-07-20T03:49:31.820Z,100.00
2018-07-20T03:50:31.850Z,104.00
2018-07-20T03:51:31.808Z,108.00
2018-07-20T03:52:31.805Z,112.00
2018-07-20T03:53:31.784Z,112.00
2018-07-20T03:54:31.768Z,120.00
2018-07-20T03:55:31.805Z,124.00
2018-07-20T03:56:31.767Z,132.00
2018-07-20T03:57:31.749Z,140.00
2018-07-20T03:58:31.760Z,148.00
2018-07-20T03:59:32.870Z,160.00
2018-07-20T04:00:31.721Z,168.00
2018-07-20T04:01:31.709Z,176.00
2018-07-20T04:02:31.726Z,180.00
2018-07-20T04:03:31.704Z,180.00
2018-07-20T04:04:31.731Z,180.00
2018-07-20T04:05:31.689Z,184.00
2018-07-20T04:06:31.685Z,188.00
2018-07-20T04:07:31.673Z,196.00
2018-07-20T04:08:31.659Z,200.00
2018-07-20T04:09:31.680Z,212.00
2018-07-20T04:10:31.640Z,224.00
2018-07-20T04:11:31.633Z,232.00
2018-07-20T04:12:31.634Z,240.00
2018-07-20T04:13:31.616Z,248.00
2018-07-20T04:14:31.631Z,256.00
2018-07-20T04:15:31.608Z,264.00
2018-07-20T04:16:31.601Z,264.00
2018-07-20T04:17:31.589Z,260.00
2018-07-20T04:18:31.588Z,276.00
2018-07-20T04:19:31.623Z,288.00
2018-07-20T04:20:31.559Z,288.00
2018-07-20T04:21:31.561Z,284.00
2018-07-20T04:22:31.544Z,284.00
2018-07-20T04:23:31.541Z,284.00
2018-07-20T04:24:31.557Z,276.00
2018-07-20T04:25:31.533Z,280.00
2018-07-20T04:26:31.513Z,284.00
2018-07-20T04:27:31.501Z,292.00
2018-07-20T04:28:31.521Z,304.00
2018-07-20T04:29:32.739Z,304.00
2018-07-20T04:30:31.478Z,304.00
2018-07-20T04:31:31.481Z,300.00
2018-07-20T04:32:31.455Z,304.00
2018-07-20T04:33:31.483Z,312.00
2018-07-20T04:34:31.446Z,324.00
2018-07-20T04:35:31.441Z,336.00
2018-07-20T04:36:31.511Z,336.00
2018-07-20T04:37:31.423Z,324.00
2018-07-20T04:38:31.480Z,324.00
2018-07-20T04:39:31.397Z,340.00
2018-07-20T04:40:31.402Z,348.00
2018-07-20T04:41:31.384Z,364.00
2018-07-20T04:42:31.388Z,364.00
2018-07-20T04:43:31.379Z,376.00
2018-07-20T04:44:31.400Z,396.00
2018-07-20T04:45:31.389Z,428.00
2018-07-20T04:46:31.362Z,452.00
2018-07-20T04:47:31.341Z,464.00
2018-07-20T04:48:31.347Z,472.00
2018-07-20T04:49:31.337Z,480.00
2018-07-20T04:50:31.353Z,468.00
2018-07-20T04:51:31.313Z,460.00
2018-07-20T04:52:31.313Z,460.00
2018-07-20T04:53:31.299Z,472.00
2018-07-20T04:54:31.291Z,512.00
2018-07-20T04:55:31.310Z,540.00
2018-07-20T04:56:31.273Z,564.00
2018-07-20T04:57:31.270Z,588.00
2018-07-20T04:58:31.261Z,588.00
2018-07-20T04:59:31.417Z,580.00
2018-07-20T05:00:31.304Z,584.00
2018-07-20T05:01:31.238Z,580.00
2018-07-20T05:02:31.234Z,596.00
2018-07-20T05:03:31.226Z,608.00
2018-07-20T05:04:31.220Z,636.00
2018-07-20T05:05:31.208Z,648.00
2018-07-20T05:06:31.224Z,652.00
2018-07-20T05:07:31.186Z,660.00
2018-07-20T05:08:31.250Z,676.00
2018-07-20T05:09:31.174Z,684.00
2018-07-20T05:10:31.168Z,688.00
2018-07-20T05:11:31.188Z,716.00
2018-07-20T05:12:31.152Z,780.00
2018-07-20T05:13:31.144Z,772.00
2018-07-20T05:14:31.142Z,772.00
2018-07-20T05:15:31.126Z,796.00
2018-07-20T05:16:31.129Z,844.00
2018-07-20T05:17:31.107Z,872.00
2018-07-20T05:18:31.138Z,892.00
2018-07-20T05:19:31.092Z,892.00
2018-07-20T05:20:31.084Z,948.00
2018-07-20T05:21:31.079Z,952.00
2018-07-20T05:22:31.075Z,952.00
2018-07-20T05:23:31.118Z,960.00
2018-07-20T05:24:31.056Z,956.00
2018-07-20T05:25:31.053Z,968.00
2018-07-20T05:26:31.046Z,1008.00
2018-07-20T05:27:31.031Z,1040.00
2018-07-20T05:28:31.019Z,1048.00
2018-07-20T05:29:31.377Z,1064.00
2018-07-20T05:30:31.013Z,1100.00
2018-07-20T05:31:31.021Z,1148.00
2018-07-20T05:32:31.005Z,1160.00
2018-07-20T05:33:30.998Z,1160.00
2018-07-20T05:34:31.012Z,1192.00
2018-07-20T05:35:30.967Z,1180.00
2018-07-20T05:36:30.955Z,1212.00
2018-07-20T05:37:30.966Z,1180.00
2018-07-20T05:38:31.007Z,1216.00
2018-07-20T05:39:30.946Z,1244.00
2018-07-20T05:40:30.948Z,1268.00
2018-07-20T05:41:30.933Z,1244.00
2018-07-20T05:42:30.928Z,1212.00
2018-07-20T05:43:30.906Z,1212.00
2018-07-20T05:44:30.924Z,1252.00
2018-07-20T05:45:30.894Z,1252.00
2018-07-20T05:46:30.917Z,1276.00
2018-07-20T05:47:30.887Z,1308.00
2018-07-20T05:48:30.876Z,1352.00
2018-07-20T05:49:30.902Z,1368.00
2018-07-20T05:50:30.890Z,1384.00
2018-07-20T05:51:30.844Z,1392.00
2018-07-20T05:52:30.849Z,1436.00
2018-07-20T05:53:30.883Z,1460.00
2018-07-20T05:54:30.852Z,1476.00
2018-07-20T05:55:30.862Z,1512.00
2018-07-20T05:56:30.827Z,1468.00
2018-07-20T05:57:30.811Z,1388.00
2018-07-20T05:58:30.815Z,1324.00
2018-07-20T05:59:30.856Z,1300.00
2018-07-20T06:00:30.793Z,1292.00
2018-07-20T06:01:30.780Z,1312.00
2018-07-20T06:02:30.770Z,1348.00
2018-07-20T06:03:30.761Z,1396.00
2018-07-20T06:04:30.757Z,1436.00
2018-07-20T06:05:30.824Z,1484.00
2018-07-20T06:06:30.739Z,1512.00
2018-07-20T06:07:30.735Z,1524.00
2018-07-20T06:08:30.729Z,1544.00
2018-07-20T06:09:30.731Z,1576.00
2018-07-20T06:10:30.712Z,1600.00
2018-07-20T06:11:30.713Z,1628.00
2018-07-20T06:12:30.687Z,1648.00
2018-07-20T06:13:30.685Z,1660.00
2018-07-20T06:14:30.684Z,1712.00
2018-07-20T06:15:30.664Z,1784.00
2018-07-20T06:16:31.031Z,1868.00
2018-07-20T06:17:30.656Z,1960.00
2018-07-20T06:18:30.657Z,2016.00
2018-07-20T06:19:30.646Z,2088.00
2018-07-20T06:20:30.638Z,2072.00
2018-07-20T06:21:30.677Z,2028.00
2018-07-20T06:22:30.664Z,1948.00
2018-07-20T06:23:30.644Z,1964.00
2018-07-20T06:24:30.642Z,1996.00
2018-07-20T06:25:30.607Z,2040.00
2018-07-20T06:26:30.592Z,2020.00
2018-07-20T06:27:30.645Z,2012.00
2018-07-20T06:28:30.589Z,1984.00
2018-07-20T06:29:30.857Z,2028.00
2018-07-20T06:30:30.581Z,2164.00
2018-07-20T06:31:30.588Z,2192.00
2018-07-20T06:32:30.561Z,2116.00
2018-07-20T06:33:30.584Z,2016.00
2018-07-20T06:34:30.540Z,1988.00
2018-07-20T06:35:30.593Z,2020.00
2018-07-20T06:36:30.532Z,2136.00
2018-07-20T06:37:30.522Z,2164.00
2018-07-20T06:38:30.508Z,2260.00
2018-07-20T06:39:30.505Z,2392.00
2018-07-20T06:40:30.501Z,2460.00
2018-07-20T06:41:30.492Z,2504.00
2018-07-20T06:42:30.487Z,2508.00
2018-07-20T06:43:30.478Z,2460.00
2018-07-20T06:44:30.473Z,2420.00
2018-07-20T06:45:30.458Z,2352.00
2018-07-20T06:46:30.516Z,2220.00
2018-07-20T06:47:30.472Z,2156.00
2018-07-20T06:48:30.447Z,2152.00
2018-07-20T06:49:30.455Z,2212.00
2018-07-20T06:50:30.444Z,2316.00
2018-07-20T06:51:30.438Z,2308.00
2018-07-20T06:52:30.461Z,2364.00
2018-07-20T06:53:30.421Z,2408.00
2018-07-20T06:54:30.413Z,2416.00
2018-07-20T06:55:30.409Z,2348.00
2018-07-20T06:56:30.394Z,2400.00
2018-07-20T06:57:30.417Z,2416.00
2018-07-20T06:58:30.391Z,2556.00
2018-07-20T06:59:30.376Z,2580.00
2018-07-20T07:00:30.367Z,2616.00
2018-07-20T07:01:30.364Z,2648.00
2018-07-20T07:02:30.380Z,2700.00
2018-07-20T07:03:30.400Z,2732.00
2018-07-20T07:04:30.335Z,2732.00
2018-07-20T07:05:30.339Z,2752.00
2018-07-20T07:06:30.327Z,2732.00
2018-07-20T07:07:30.317Z,2704.00
2018-07-20T07:08:30.316Z,2708.00
2018-07-20T07:09:30.428Z,2696.00
2018-07-20T07:10:30.304Z,2736.00
2018-07-20T07:11:30.323Z,2768.00
2018-07-20T07:12:30.281Z,2816.00
2018-07-20T07:13:30.283Z,2888.00
2018-07-20T07:14:30.311Z,2932.00
2018-07-20T07:15:30.274Z,2928.00
2018-07-20T07:16:30.271Z,2856.00
2018-07-20T07:17:30.258Z,2816.00
2018-07-20T07:18:30.247Z,2796.00
2018-07-20T07:19:30.280Z,2788.00
2018-07-20T07:20:30.271Z,2832.00
2018-07-20T07:21:30.240Z,2880.00
2018-07-20T07:22:30.531Z,2940.00
2018-07-20T07:23:30.215Z,2900.00
2018-07-20T07:24:30.232Z,2908.00
2018-07-20T07:25:30.232Z,2988.00
2018-07-20T07:26:30.190Z,3020.00
2018-07-20T07:27:30.187Z,3084.00
2018-07-20T07:28:30.234Z,3100.00
2018-07-20T07:29:30.176Z,3052.00
2018-07-20T07:30:30.198Z,3028.00
2018-07-20T07:31:30.180Z,3008.00
2018-07-20T07:32:30.180Z,3008.00
2018-07-20T07:33:30.151Z,3012.00
2018-07-20T07:34:30.154Z,3028.00
2018-07-20T07:35:30.187Z,3060.00
2018-07-20T07:36:30.139Z,3080.00
2018-07-20T07:37:30.157Z,3112.00
2018-07-20T07:38:30.131Z,3168.00
2018-07-20T07:39:30.127Z,3224.00
2018-07-20T07:40:30.132Z,3220.00
2018-07-20T07:41:30.121Z,3196.00
2018-07-20T07:42:30.136Z,3156.00
2018-07-20T07:43:30.090Z,3148.00
2018-07-20T07:44:30.112Z,3172.00
2018-07-20T07:45:30.182Z,3176.00
2018-07-20T07:46:30.081Z,3144.00
2018-07-20T07:47:30.099Z,3136.00
2018-07-20T07:48:30.068Z,3156.00
2018-07-20T07:49:30.071Z,3188.00
2018-07-20T07:50:30.124Z,3192.00
2018-07-20T07:51:30.050Z,3240.00
2018-07-20T07:52:30.039Z,3360.00
2018-07-20T07:53:30.041Z,3432.00
2018-07-20T07:54:30.035Z,3440.00
2018-07-20T07:55:30.035Z,3472.00
2018-07-20T07:56:30.063Z,3472.00
2018-07-20T07:57:30.065Z,3492.00
2018-07-20T07:58:30.020Z,3520.00
2018-07-20T07:59:30.012Z,3580.00
2018-07-20T08:00:30.002Z,3620.00
2018-07-20T08:01:30.028Z,3640.00
2018-07-20T08:02:29.987Z,3628.00
2018-07-20T08:03:30.072Z,3652.00
2018-07-20T08:04:29.995Z,3644.00
2018-07-20T08:05:29.969Z,3600.00
2018-07-20T08:06:29.978Z,3560.00
2018-07-20T08:07:29.961Z,3552.00
2018-07-20T08:08:29.967Z,3584.00
2018-07-20T08:09:29.955Z,3604.00
2018-07-20T08:10:29.961Z,3644.00
2018-07-20T08:11:29.935Z,3668.00
2018-07-20T08:12:29.932Z,3716.00
2018-07-20T08:13:30.286Z,3696.00
2018-07-20T08:14:29.912Z,3628.00
2018-07-20T08:15:29.933Z,3600.00
2018-07-20T08:16:29.911Z,3720.00
2018-07-20T08:17:29.906Z,3808.00
2018-07-20T08:18:29.966Z,3876.00
2018-07-20T08:19:29.918Z,4084.00
2018-07-20T08:20:29.893Z,4128.00
2018-07-20T08:21:29.960Z,4180.00
2018-07-20T08:22:29.903Z,3872.00
2018-07-20T08:23:29.875Z,3928.00
2018-07-20T08:24:29.869Z,3972.00
2018-07-20T08:25:29.862Z,4224.00
2018-07-20T08:26:29.868Z,4804.00
2018-07-20T08:27:29.878Z,4332.00
2018-07-20T08:28:29.861Z,4232.00
2018-07-20T08:29:29.922Z,4216.00
2018-07-20T08:30:29.852Z,4452.00
2018-07-20T08:31:29.828Z,5032.00
2018-07-20T08:32:29.824Z,4292.00
2018-07-20T08:33:29.850Z,4080.00
2018-07-20T08:34:29.816Z,4172.00
2018-07-20T08:35:29.834Z,4644.00
2018-07-20T08:36:29.814Z,5052.00
2018-07-20T08:37:29.799Z,5560.00
2018-07-20T08:38:29.805Z,6864.00
2018-07-20T08:39:29.797Z,7588.00
2018-07-20T08:40:29.824Z,7108.00
2018-07-20T08:41:29.775Z,7652.00
2018-07-20T08:42:29.802Z,6460.00
2018-07-20T08:43:29.780Z,4680.00
2018-07-20T08:44:29.776Z,5156.00
2018-07-20T08:45:29.778Z,4852.00
2018-07-20T08:46:29.829Z,5192.00
2018-07-20T08:47:29.759Z,5864.00
2018-07-20T08:48:29.745Z,5524.00
2018-07-20T08:49:29.753Z,6140.00
2018-07-20T08:50:29.812Z,9160.00
2018-07-20T08:51:30.098Z,18816.00
2018-07-20T08:52:30.059Z,25952.00
2018-07-20T08:53:30.468Z,27744.00
2018-07-20T08:54:29.728Z,30976.00
2018-07-20T08:55:29.734Z,36608.00
2018-07-20T08:56:29.731Z,34048.00
2018-07-20T08:57:29.759Z,32288.00
2018-07-20T08:58:29.706Z,33632.00
2018-07-20T08:59:29.715Z,36384.00
2018-07-20T09:00:29.705Z,40416.00
2018-07-20T09:01:29.761Z,39552.00
2018-07-20T09:02:29.711Z,38400.00
2018-07-20T09:03:29.726Z,36448.00
2018-07-20T09:04:29.701Z,39776.00
2018-07-20T09:05:29.708Z,42880.00
2018-07-20T09:06:29.746Z,44512.00
2018-07-20T09:07:29.742Z,48224.00
2018-07-20T09:08:29.738Z,47296.00
2018-07-20T09:09:29.704Z,48960.00
2018-07-20T09:10:29.711Z,52352.00
2018-07-20T09:11:29.738Z,52736.00
2018-07-20T09:12:29.716Z,56416.00
2018-07-20T09:13:29.742Z,55104.00
2018-07-20T09:14:29.710Z,54560.00
2018-07-20T09:15:29.712Z,55232.00
2018-07-20T09:16:29.718Z,58048.00
2018-07-20T09:17:29.793Z,57120.00
2018-07-20T09:18:29.709Z,56384.00
2018-07-20T09:19:29.719Z,58656.00
2018-07-20T09:20:29.774Z,59040.00
2018-07-20T09:21:29.718Z,57408.00
2018-07-20T09:22:29.726Z,56384.00
2018-07-20T09:23:29.813Z,59808.00
2018-07-20T09:24:29.742Z,60128.00
2018-07-20T09:25:29.738Z,50784.00
2018-07-20T09:26:29.757Z,59744.00
2018-07-20T09:27:29.740Z,66208.00
2018-07-20T09:28:29.754Z,65312.00
2018-07-20T09:29:29.785Z,63808.00
2018-07-20T09:30:29.762Z,59328.00
2018-07-20T09:31:29.757Z,59264.00
2018-07-20T09:32:29.764Z,60288.00
2018-07-20T09:33:29.893Z,61216.00
2018-07-20T09:34:30.072Z,65312.00
2018-07-20T09:35:30.008Z,65856.00
2018-07-20T09:36:29.986Z,62016.00
2018-07-20T09:37:29.892Z,55488.00
2018-07-20T09:38:29.892Z,55200.00
2018-07-20T09:39:29.914Z,55712.00
2018-07-20T09:40:30.018Z,62976.00
2018-07-20T09:41:29.963Z,65504.00
2018-07-20T09:42:29.967Z,66208.00
2018-07-20T09:43:29.975Z,70080.00
2018-07-20T09:44:29.942Z,64256.00
2018-07-20T09:45:30.109Z,59328.00
2018-07-20T09:46:30.189Z,55360.00
2018-07-20T09:47:30.149Z,57728.00
2018-07-20T09:48:30.045Z,63040.00
2018-07-20T09:49:30.027Z,68608.00
2018-07-20T09:50:29.929Z,68224.00
2018-07-20T09:51:29.867Z,68128.00
2018-07-20T09:52:29.872Z,69536.00
2018-07-20T09:53:29.885Z,67136.00
2018-07-20T09:54:29.892Z,65632.00
2018-07-20T09:55:29.885Z,66176.00
2018-07-20T09:56:29.891Z,64992.00
2018-07-20T09:57:29.907Z,64256.00
2018-07-20T09:58:29.924Z,64800.00
2018-07-20T09:59:30.096Z,66624.00
2018-07-20T10:00:29.950Z,60896.00
2018-07-20T10:01:29.925Z,54400.00
2018-07-20T10:02:29.945Z,52736.00
2018-07-20T10:03:29.950Z,48864.00
2018-07-20T10:04:29.944Z,48320.00
2018-07-20T10:05:30.687Z,52128.00
2018-07-20T10:06:30.002Z,57024.00
2018-07-20T10:07:29.982Z,60288.00
2018-07-20T10:08:29.979Z,58912.00
2018-07-20T10:09:29.993Z,58528.00
2018-07-20T10:10:29.990Z,61664.00
2018-07-20T10:11:30.310Z,64096.00
2018-07-20T10:12:31.736Z,66336.00
2018-07-20T10:13:30.010Z,64896.00
2018-07-20T10:14:30.018Z,58944.00
2018-07-20T10:15:30.046Z,53088.00
2018-07-20T10:16:30.034Z,55488.00
2018-07-20T10:17:30.054Z,56992.00
2018-07-20T10:18:30.048Z,56992.00
2018-07-20T10:19:30.046Z,57664.00
2018-07-20T10:20:30.057Z,62016.00
2018-07-20T10:21:30.113Z,63744.00
2018-07-20T10:22:30.093Z,60928.00
2018-07-20T10:23:30.089Z,60160.00
2018-07-20T10:24:30.097Z,58368.00
2018-07-20T10:25:30.146Z,59264.00
2018-07-20T10:26:30.119Z,61152.00
2018-07-20T10:27:30.166Z,69344.00
2018-07-20T10:28:30.122Z,75392.00
2018-07-20T10:29:30.127Z,71392.00
2018-07-20T10:30:30.145Z,63584.00
2018-07-20T10:31:30.144Z,62208.00
2018-07-20T10:32:30.154Z,62368.00
2018-07-20T10:33:30.199Z,65760.00
2018-07-20T10:34:30.174Z,78080.00
2018-07-20T10:35:30.208Z,80768.00
2018-07-20T10:36:30.190Z,76960.00
2018-07-20T10:37:30.227Z,74208.00
2018-07-20T10:38:30.204Z,73120.00
2018-07-20T10:39:30.224Z,70496.00
2018-07-20T10:40:30.221Z,66944.00
2018-07-20T10:41:30.234Z,59872.00
2018-07-20T10:42:30.241Z,59648.00
2018-07-20T10:43:30.307Z,65344.00
2018-07-20T10:44:30.256Z,63552.00
2018-07-20T10:45:30.266Z,61952.00
2018-07-20T10:46:30.283Z,67616.00
2018-07-20T10:47:30.278Z,69408.00
2018-07-20T10:48:30.302Z,61536.00
2018-07-20T10:49:30.311Z,60544.00
2018-07-20T10:50:30.317Z,55424.00
2018-07-20T10:51:30.318Z,34592.00
2018-07-20T10:52:30.328Z,63712.00
2018-07-20T10:53:30.324Z,21696.00
2018-07-20T10:54:30.353Z,21312.00
2018-07-20T10:55:30.344Z,23904.00
2018-07-20T10:56:30.347Z,20192.00
2018-07-20T10:57:30.377Z,34560.00
2018-07-20T10:58:30.386Z,52896.00
2018-07-20T10:59:30.459Z,50496.00
2018-07-20T11:00:30.400Z,61088.00
2018-07-20T11:01:30.464Z,59424.00
2018-07-20T11:02:30.404Z,58048.00
2018-07-20T11:03:30.400Z,61248.00
2018-07-20T11:04:30.425Z,66240.00
2018-07-20T11:05:30.475Z,61536.00
2018-07-20T11:06:30.453Z,55648.00
2018-07-20T11:07:30.436Z,22688.00
2018-07-20T11:08:30.461Z,26560.00
2018-07-20T11:09:30.476Z,31136.00
2018-07-20T11:10:30.473Z,29888.00
2018-07-20T11:11:30.495Z,49344.00
2018-07-20T11:12:30.476Z,28768.00
2018-07-20T11:13:30.487Z,41888.00
2018-07-20T11:14:30.481Z,13340.00
2018-07-20T11:15:30.493Z,25952.00
2018-07-20T11:16:30.529Z,31648.00
2018-07-20T11:17:30.542Z,56832.00
2018-07-20T11:18:30.525Z,69888.00
2018-07-20T11:19:30.515Z,68928.00
2018-07-20T11:20:30.515Z,66176.00
2018-07-20T11:21:30.553Z,71488.00
2018-07-20T11:22:37.288Z,67712.00
2018-07-20T11:23:30.537Z,68320.00
2018-07-20T11:24:30.538Z,71264.00
2018-07-20T11:25:30.547Z,68896.00
2018-07-20T11:26:30.572Z,64736.00
2018-07-20T11:27:30.766Z,64896.00
2018-07-20T11:28:30.568Z,72032.00
2018-07-20T11:29:30.586Z,68608.00
2018-07-20T11:30:30.628Z,6852.00
2018-07-20T11:31:30.600Z,63808.00
2018-07-20T11:32:30.590Z,66816.00
2018-07-20T11:33:30.609Z,60768.00
2018-07-20T11:34:30.609Z,58720.00
2018-07-20T11:35:30.619Z,63392.00
2018-07-20T11:36:30.640Z,55296.00
2018-07-20T11:37:30.634Z,54176.00
2018-07-20T11:38:30.851Z,57792.00
2018-07-20T11:39:30.643Z,68288.00
2018-07-20T11:40:30.646Z,69312.00
2018-07-20T11:41:30.707Z,67328.00
2018-07-20T11:42:30.660Z,61152.00
2018-07-20T11:43:30.720Z,57696.00
2018-07-20T11:44:30.678Z,59360.00
2018-07-20T11:45:30.680Z,57760.00
2018-07-20T11:46:30.681Z,62784.00
2018-07-20T11:47:30.722Z,70656.00
2018-07-20T11:48:30.703Z,71936.00
2018-07-20T11:49:30.724Z,71200.00
2018-07-20T11:50:30.716Z,12740.00
2018-07-20T11:51:30.758Z,45792.00
2018-07-20T11:52:30.754Z,59328.00
2018-07-20T11:53:30.741Z,64480.00
2018-07-20T11:54:30.756Z,67328.00
2018-07-20T11:55:30.814Z,64064.00
2018-07-20T11:56:30.771Z,63424.00
2018-07-20T11:57:30.770Z,61120.00
2018-07-20T11:58:30.781Z,30624.00
2018-07-20T11:59:30.783Z,10772.00
2018-07-20T12:00:30.800Z,12376.00
2018-07-20T12:01:30.821Z,11652.00
2018-07-20T12:02:30.814Z,21056.00
2018-07-20T12:03:30.814Z,36704.00
2018-07-20T12:04:30.817Z,31264.00
2018-07-20T12:05:30.874Z,34848.00
2018-07-20T12:06:30.842Z,30944.00
2018-07-20T12:07:30.869Z,6496.00
2018-07-20T12:08:30.857Z,5720.00
2018-07-20T12:09:30.857Z,6612.00
2018-07-20T12:10:30.863Z,5500.00
2018-07-20T12:11:30.878Z,5320.00
2018-07-20T12:12:30.912Z,5116.00
2018-07-20T12:13:30.880Z,5112.00
2018-07-20T12:14:30.887Z,5028.00
2018-07-20T12:15:30.893Z,5396.00
2018-07-20T12:16:30.902Z,4544.00
2018-07-20T12:17:30.947Z,5056.00
2018-07-20T12:18:31.002Z,6324.00
2018-07-20T12:19:30.922Z,5768.00
2018-07-20T12:20:30.916Z,4964.00
2018-07-20T12:21:30.939Z,5180.00
2018-07-20T12:22:30.934Z,5156.00